Time;durP1;ratioP1;P1;durP2;ratioP2;P2;SDS_P1;SDS_P2;PMS_P1;PMS_P2;Temp;Humidity;BMP_temperature;BMP_pressure;BME280_temperature;BME280_humidity;BME280_pressure;Samples;Min_cycle;Max_cycle;Signal;HPM_P1;HPM_P2
2021/06/07 05:31:41;;;;;;;7.87;5.70;;;;;;;17.19;61.53;100660.83;1619660;84;27148;-61
2021/06/07 05:34:08;;;;;;;6.60;5.33;;;;;;;17.40;61.22;100661.23;1621326;86;27350;-61
2021/06/07 05:36:35;;;;;;;7.47;5.33;;;;;;;17.57;60.65;100660.16;1602575;87;25858;-60
2021/06/07 05:39:01;;;;;;;9.23;5.67;;;;;;;17.73;60.46;100664.55;1582902;89;25902;-60
2021/06/07 05:41:28;;;;;;;8.33;5.10;;;;;;;17.94;60.19;100658.67;1563953;90;25954;-61
2021/06/07 05:43:55;;;;;;;6.65;5.55;;;;;;;18.15;59.55;100660.63;1599398;87;25717;-60
2021/06/07 05:46:22;;;;;;;10.25;5.00;;;;;;;18.36;59.29;100663.69;1598844;88;27332;-60
2021/06/07 05:48:49;;;;;;;7.53;5.10;;;;;;;18.59;59.19;100663.84;1599585;87;25995;-61
2021/06/07 05:51:16;;;;;;;8.33;4.85;;;;;;;18.82;58.66;100665.38;1603026;87;25815;-61
2021/06/07 05:53:43;;;;;;;7.42;4.70;;;;;;;19.04;57.93;100658.47;1603489;87;25963;-60
2021/06/07 05:56:10;;;;;;;7.55;4.85;;;;;;;19.26;57.25;100661.66;1598668;87;26018;-61
2021/06/07 05:58:38;;;;;;;8.90;4.70;;;;;;;19.44;56.51;100661.47;1609278;87;27388;-60
2021/06/07 06:01:04;;;;;;;8.13;4.37;;;;;;;19.67;55.86;100664.30;1613834;86;25670;-56
2021/06/07 06:03:31;;;;;;;7.05;4.97;;;;;;;19.90;55.64;100658.09;1632990;86;25877;-53
2021/06/07 06:05:58;;;;;;;7.03;5.17;;;;;;;20.08;55.04;100657.84;1624606;86;27812;-53
2021/06/07 06:08:25;;;;;;;6.20;4.53;;;;;;;20.28;54.85;100663.30;1622571;87;25764;-54
2021/06/07 06:10:52;;;;;;;10.03;4.55;;;;;;;20.44;54.27;100664.54;1608315;87;27461;-54
2021/06/07 06:13:19;;;;;;;5.33;3.83;;;;;;;20.56;53.68;100658.84;1584545;88;25974;-53
2021/06/07 06:15:46;;;;;;;4.25;3.95;;;;;;;20.71;52.88;100662.06;1626690;86;26319;-53
2021/06/07 06:18:13;;;;;;;5.85;4.17;;;;;;;20.84;51.92;100665.97;1604979;87;25699;-53
2021/06/07 06:20:40;;;;;;;3.55;3.15;;;;;;;20.96;51.44;100669.09;1626231;87;25940;-54
2021/06/07 06:23:08;;;;;;;7.37;3.87;;;;;;;21.06;50.98;100665.14;1621577;86;27511;-53
2021/06/07 06:25:35;;;;;;;4.80;3.77;;;;;;;21.20;50.15;100674.75;1620072;87;25757;-53
2021/06/07 06:28:02;;;;;;;5.08;3.65;;;;;;;21.32;50.16;100675.89;1621276;87;26172;-53
2021/06/07 06:30:29;;;;;;;6.03;3.75;;;;;;;21.45;49.76;100676.44;1612351;87;26972;-52
2021/06/07 06:33:00;;;;;;;5.10;3.77;;;;;;;21.57;49.13;100675.44;1617726;87;25944;-52
2021/06/07 06:35:28;;;;;;;6.62;4.10;;;;;;;21.70;48.13;100681.50;1615240;87;27332;-53
2021/06/07 06:37:56;;;;;;;5.90;3.27;;;;;;;21.82;48.14;100682.02;1611372;87;26399;-54
2021/06/07 06:40:33;;;;;;;5.08;3.92;;;;;;;21.98;47.46;100679.62;1612440;87;25783;-52
2021/06/07 06:43:01;;;;;;;6.28;3.80;;;;;;;22.13;47.56;100681.95;1615985;87;26027;-53
2021/06/07 06:45:28;;;;;;;4.28;3.30;;;;;;;22.32;47.17;100683.16;1569786;89;25714;-53
2021/06/07 06:47:58;;;;;;;5.92;3.85;;;;;;;22.50;46.46;100689.41;1568516;89;27346;-54
2021/06/07 06:50:33;;;;;;;3.98;3.45;;;;;;;22.70;46.63;100678.95;1562414;90;25883;-55
2021/06/07 06:53:02;;;;;;;6.22;3.83;;;;;;;22.91;45.77;100683.21;1603595;87;25669;-54
2021/06/07 06:55:28;;;;;;;8.58;4.12;;;;;;;23.18;45.78;100681.64;1601688;87;26278;-54
2021/06/07 06:57:55;;;;;;;4.85;3.80;;;;;;;23.45;45.49;100685.53;1610591;87;25716;-53
2021/06/07 07:00:23;;;;;;;3.87;3.50;;;;;;;23.68;45.08;100683.26;1598530;87;27361;-52
2021/06/07 07:02:50;;;;;;;5.03;3.40;;;;;;;23.92;44.33;100684.33;1598351;87;25858;-53
2021/06/07 07:05:17;;;;;;;4.70;3.72;;;;;;;24.12;44.21;100674.50;1616558;87;25925;-53
2021/06/07 07:07:44;;;;;;;3.80;3.50;;;;;;;24.36;43.81;100677.08;1612871;87;25810;-53
2021/06/07 07:10:12;;;;;;;4.58;3.50;;;;;;;24.57;42.82;100676.95;1613869;87;25864;-53
2021/06/07 07:12:38;;;;;;;5.92;3.33;;;;;;;24.79;42.83;100680.45;1608772;87;27339;-54
2021/06/07 07:15:06;;;;;;;3.52;3.22;;;;;;;25.04;42.41;100676.27;1602825;87;25858;-55
2021/06/07 07:17:33;;;;;;;5.90;3.47;;;;;;;25.28;41.53;100681.56;1604415;87;25752;-55
2021/06/07 07:20:00;;;;;;;4.20;3.80;;;;;;;25.49;40.91;100679.33;1580016;89;26594;-55
2021/06/07 07:22:27;;;;;;;5.10;3.60;;;;;;;25.71;40.57;100678.63;1605484;87;25861;-54
2021/06/07 07:24:54;;;;;;;3.62;3.15;;;;;;;25.90;40.13;100674.56;1610385;87;27386;-55
2021/06/07 07:27:21;;;;;;;4.40;3.47;;;;;;;26.12;39.86;100675.85;1583106;89;26175;-53
2021/06/07 07:29:48;;;;;;;3.40;3.08;;;;;;;26.35;39.09;100677.27;1558433;90;25764;-55
2021/06/07 07:32:15;;;;;;;3.87;3.27;;;;;;;26.60;38.73;100677.06;1576832;89;25830;-54
2021/06/07 07:34:42;;;;;;;7.75;3.30;;;;;;;26.83;38.35;100680.05;1563274;90;25732;-54
2021/06/07 07:37:10;;;;;;;4.45;3.55;;;;;;;27.07;37.59;100681.56;1561523;89;27343;-54
2021/06/07 07:39:38;;;;;;;4.08;3.60;;;;;;;27.28;37.13;100681.16;1567244;90;25863;-54
2021/06/07 07:42:07;;;;;;;3.40;3.10;;;;;;;27.50;36.95;100681.11;1567075;90;25742;-54
2021/06/07 07:44:34;;;;;;;7.27;4.93;;;;;;;27.70;36.30;100677.66;1571051;90;25840;-55
2021/06/07 07:47:02;;;;;;;4.58;3.87;;;;;;;27.89;36.03;100681.19;1613540;87;26207;-56
2021/06/07 07:49:28;;;;;;;3.75;3.17;;;;;;;28.10;36.01;100682.10;1619131;87;27351;-55
2021/06/07 07:51:55;;;;;;;4.30;3.22;;;;;;;28.35;35.19;100673.95;1611328;87;25803;-56
2021/06/07 07:54:22;;;;;;;4.53;3.30;;;;;;;28.53;34.64;100677.84;1609524;86;26018;-55
2021/06/07 07:56:49;;;;;;;3.25;2.95;;;;;;;28.69;34.28;100673.83;1607643;87;27744;-56
2021/06/07 07:59:15;;;;;;;4.08;2.87;;;;;;;28.83;33.33;100678.34;1585941;89;25767;-56
2021/06/07 08:01:42;;;;;;;3.77;3.30;;;;;;;29.03;33.43;100680.55;1613992;87;28048;-55
2021/06/07 08:04:09;;;;;;;6.87;3.22;;;;;;;29.26;32.78;100673.36;1606286;87;27205;-56
2021/06/07 08:06:36;;;;;;;7.42;3.25;;;;;;;29.45;32.49;100667.59;1605476;87;25754;-55
2021/06/07 08:09:04;;;;;;;8.93;3.37;;;;;;;29.60;32.44;100667.46;1605418;87;25758;-55
2021/06/07 08:11:40;;;;;;;3.08;2.77;;;;;;;29.83;32.07;100665.02;1605202;87;25848;-56
2021/06/07 08:14:16;;;;;;;4.37;2.95;;;;;;;30.02;31.84;100666.97;1601900;87;27703;-55
2021/06/07 08:17:03;;;;;;;5.75;2.75;;;;;;;30.12;31.56;100665.93;1598775;87;26406;-55
2021/06/07 08:19:30;;;;;;;4.80;2.85;;;;;;;30.35;30.86;100666.97;1602879;86;25873;-56
2021/06/07 08:21:56;;;;;;;2.90;2.70;;;;;;;30.56;30.25;100673.25;1601034;87;25752;-56
2021/06/07 08:24:23;;;;;;;3.40;3.08;;;;;;;30.68;29.70;100675.33;1619302;87;26375;-53
2021/06/07 08:26:50;;;;;;;5.90;2.90;;;;;;;30.88;29.60;100673.18;1630992;86;26661;-55
2021/06/07 08:29:16;;;;;;;3.72;3.35;;;;;;;31.09;29.46;100671.05;1630954;86;25641;-55
2021/06/07 08:31:43;;;;;;;4.20;2.80;;;;;;;31.22;28.60;100670.48;1635507;86;26009;-55
2021/06/07 08:34:09;;;;;;;4.95;3.00;;;;;;;31.37;28.53;100665.27;1633389;86;25898;-55
2021/06/07 08:36:36;;;;;;;3.00;2.77;;;;;;;31.58;28.16;100665.27;1632099;86;25855;-55
2021/06/07 08:39:10;;;;;;;4.17;2.67;;;;;;;31.66;28.07;100661.65;1634398;86;27387;-56
2021/06/07 08:41:37;;;;;;;3.90;3.50;;;;;;;31.82;28.24;100665.75;1622831;86;25857;-53
2021/06/07 08:44:05;;;;;;;3.40;3.02;;;;;;;32.00;27.71;100660.97;1606882;87;26047;-55
2021/06/07 08:46:32;;;;;;;4.40;3.12;;;;;;;32.08;27.47;100656.56;1611231;86;26555;-56
2021/06/07 08:48:58;;;;;;;5.58;3.02;;;;;;;32.16;27.00;100659.30;1576179;89;26534;-56
2021/06/07 08:51:25;;;;;;;5.15;3.40;;;;;;;32.19;27.19;100655.61;1570404;90;27352;-55
2021/06/07 08:53:54;;;;;;;4.67;3.12;;;;;;;32.38;26.88;100653.77;1603258;87;26472;-55
2021/06/07 08:56:21;;;;;;;;;;;;;;;32.57;27.06;100650.52;1607992;87;25878;-56
2021/06/07 08:58:49;;;;;;;5.15;3.58;;;;;;;32.56;26.09;100646.18;1620097;87;25931;-56
2021/06/07 09:01:16;;;;;;;4.30;3.33;;;;;;;32.63;26.05;100643.16;1611689;87;25804;-56
2021/06/07 09:03:44;;;;;;;4.37;3.17;;;;;;;32.68;26.29;100641.17;1594068;87;27384;-55
2021/06/07 09:06:11;;;;;;;3.20;2.90;;;;;;;32.73;25.60;100647.59;1610794;87;25677;-56
2021/06/07 09:08:40;;;;;;;4.58;3.10;;;;;;;32.66;25.87;100642.84;1603100;87;26495;-55
2021/06/07 09:11:11;;;;;;;3.15;2.85;;;;;;;32.88;26.03;100641.47;1601067;87;25805;-56
2021/06/07 09:13:39;;;;;;;4.85;2.95;;;;;;;33.19;26.12;100643.59;1615667;87;25924;-56
2021/06/07 09:16:09;;;;;;;5.85;3.50;;;;;;;33.38;25.27;100636.84;1596758;87;27922;-55
2021/06/07 09:18:40;;;;;;;9.28;3.05;;;;;;;33.41;25.01;100637.95;1581286;88;25916;-54
2021/06/07 09:21:18;;;;;;;2.87;2.62;;;;;;;33.53;23.79;100634.88;1609873;87;27008;-54
2021/06/07 09:24:04;;;;;;;3.45;2.58;;;;;;;33.53;23.79;100634.88;1613773;87;25954;-54
2021/06/07 09:26:44;;;;;;;4.67;3.20;;;;;;;33.44;24.10;100632.81;1610707;87;25678;-53
2021/06/07 09:29:28;;;;;;;4.72;3.10;;;;;;;33.66;24.62;100635.55;1604744;87;28377;-53
2021/06/07 09:31:57;;;;;;;3.52;3.22;;;;;;;33.89;24.05;100635.68;1632148;86;25950;-52
2021/06/07 09:34:30;;;;;;;3.40;3.10;;;;;;;34.05;23.83;100634.63;1633785;85;25942;-53
2021/06/07 09:37:12;;;;;;;3.20;2.50;;;;;;;34.19;23.84;100631.23;1607114;86;25580;-53
2021/06/07 09:39:40;;;;;;;4.17;2.65;;;;;;;34.33;23.95;100625.67;1601019;87;25851;-53
2021/06/07 09:42:09;;;;;;;;;;;;;;;34.42;23.22;100620.68;1611062;87;27328;-54
2021/06/07 09:44:47;;;;;;;3.40;3.10;;;;;;;34.70;23.27;100621.47;1605879;87;25940;-54
2021/06/07 09:47:23;;;;;;;3.45;3.15;;;;;;;34.70;23.27;100621.47;1614120;87;25767;-53
2021/06/07 09:50:03;;;;;;;4.55;3.00;;;;;;;34.82;23.00;100614.16;1607040;87;26455;-51
2021/06/07 09:52:44;;;;;;;4.22;3.85;;;;;;;34.91;22.93;100611.31;1620323;87;25739;-52
2021/06/07 09:55:29;;;;;;;3.60;3.05;;;;;;;35.02;22.70;100617.08;1621188;87;29602;-52
2021/06/07 09:58:05;;;;;;;4.78;3.33;;;;;;;35.17;22.53;100612.35;1603960;87;25979;-54
2021/06/07 10:00:47;;;;;;;4.30;2.77;;;;;;;35.21;22.33;100607.33;1609264;87;25821;-53
2021/06/07 10:03:26;;;;;;;3.55;3.25;;;;;;;35.30;22.54;100605.94;1620365;87;25851;-52
2021/06/07 10:05:58;;;;;;;4.33;2.95;;;;;;;35.35;21.92;100601.72;1607839;87;25822;-51
2021/06/07 10:08:28;;;;;;;6.65;3.10;;;;;;;35.41;22.21;100604.02;1561771;89;27944;-49
2021/06/07 10:10:54;;;;;;;3.92;2.85;;;;;;;35.59;22.12;100599.56;1610326;87;25759;-48
2021/06/07 10:13:21;;;;;;;4.50;2.77;;;;;;;35.58;21.38;100603.64;1611878;87;25981;-48
2021/06/07 10:15:50;;;;;;;3.52;3.08;;;;;;;35.51;22.04;100602.73;1595959;87;25875;-49
2021/06/07 10:18:22;;;;;;;4.25;3.20;;;;;;;35.41;21.62;100604.66;1604741;87;26391;-48
2021/06/07 10:20:51;;;;;;;3.87;3.10;;;;;;;34.89;21.20;100601.79;1612510;87;27467;-48
2021/06/07 10:23:28;;;;;;;8.68;3.15;;;;;;;34.40;21.67;100597.91;1598931;87;25463;-48
2021/06/07 10:26:01;;;;;;;5.58;3.30;;;;;;;34.28;21.88;100597.45;1605266;87;27012;-52
2021/06/07 10:28:32;;;;;;;3.27;2.72;;;;;;;34.50;22.22;100595.27;1609511;87;26176;-50
2021/06/07 10:31:12;;;;;;;10.53;3.37;;;;;;;34.71;22.09;100595.55;1607509;87;26527;-49
2021/06/07 10:33:42;;;;;;;5.47;3.15;;;;;;;34.82;21.78;100585.27;1619715;86;28408;-47
2021/06/07 10:36:29;;;;;;;3.80;3.17;;;;;;;34.36;21.68;100586.84;1617543;87;26588;-48
2021/06/07 10:39:20;;;;;;;3.62;3.02;;;;;;;34.28;22.47;100596.05;1623877;87;25839;-47
2021/06/07 10:42:01;;;;;;;4.97;3.27;;;;;;;34.48;22.15;100572.49;1608451;87;26287;-47
2021/06/07 10:44:52;;;;;;;8.85;4.15;;;;;;;34.48;22.15;100572.49;1618175;87;25673;-47
2021/06/07 10:47:30;;;;;;;4.45;4.12;;;;;;;34.22;21.94;100577.02;1602623;87;27333;-48
2021/06/07 10:50:13;;;;;;;4.35;3.12;;;;;;;33.79;22.10;100581.57;1617379;87;25835;-47
2021/06/07 10:52:50;;;;;;;3.55;3.10;;;;;;;33.55;22.34;100586.16;1617325;87;25785;-48
2021/06/07 10:55:24;;;;;;;5.00;3.20;;;;;;;33.70;22.39;100575.95;1615085;87;25876;-47
2021/06/07 10:58:12;;;;;;;3.60;3.30;;;;;;;33.84;21.90;100570.38;1607374;87;25998;-49
2021/06/07 11:00:46;;;;;;;4.28;3.55;;;;;;;33.39;22.32;100574.55;1614411;87;28581;-49
2021/06/07 11:03:20;;;;;;;4.10;3.50;;;;;;;33.39;22.32;100574.55;1626143;87;25696;-48
2021/06/07 11:05:54;;;;;;;3.58;3.27;;;;;;;32.95;22.63;100570.57;1608470;87;25874;-49
2021/06/07 11:08:29;;;;;;;5.75;3.50;;;;;;;32.95;22.63;100570.57;1571733;89;26202;-51
2021/06/07 11:11:16;;;;;;;3.40;3.10;;;;;;;32.64;22.48;100577.53;1603833;87;26034;-50
2021/06/07 11:13:54;;;;;;;3.95;3.65;;;;;;;32.50;23.05;100571.00;1599654;87;27335;-52
2021/06/07 11:16:40;;;;;;;4.92;2.95;;;;;;;32.60;22.81;100570.45;1613246;87;25920;-49
2021/06/07 11:19:10;;;;;;;4.47;3.17;;;;;;;32.97;22.80;100567.94;1611131;87;27426;-51
2021/06/07 11:21:53;;;;;;;7.65;3.70;;;;;;;33.44;23.07;100574.74;1605060;87;25889;-52
2021/06/07 11:24:38;;;;;;;4.42;3.33;;;;;;;33.77;23.41;100572.84;1612408;87;25754;-52
2021/06/07 11:27:08;;;;;;;3.58;3.27;;;;;;;34.23;22.62;100576.38;1622298;87;27346;-52
2021/06/07 11:29:35;;;;;;;4.50;4.10;;;;;;;34.34;22.49;100568.89;1589838;87;25982;-52
2021/06/07 11:32:14;;;;;;;7.12;4.10;;;;;;;34.30;22.42;100573.89;1584798;88;25892;-52
2021/06/07 11:34:50;;;;;;;4.72;3.42;;;;;;;34.56;21.91;100576.52;1607804;87;26555;-52
2021/06/07 11:37:36;;;;;;;3.75;3.45;;;;;;;34.66;22.05;100576.53;1614368;87;25727;-53
2021/06/07 11:40:08;;;;;;;6.17;3.75;;;;;;;34.36;22.38;100563.58;1613704;87;27494;-52
2021/06/07 11:42:54;;;;;;;5.20;3.75;;;;;;;34.37;22.05;100566.55;1595316;87;26728;-52
2021/06/07 11:45:39;;;;;;;4.95;3.77;;;;;;;34.00;21.87;100562.28;1613180;87;26653;-53
2021/06/07 11:48:07;;;;;;;8.35;4.17;;;;;;;33.70;22.71;100560.52;1608109;86;25934;-50
2021/06/07 11:50:37;;;;;;;7.42;3.77;;;;;;;34.40;22.51;100566.39;1605778;87;26010;-51
2021/06/07 11:53:15;;;;;;;;;;;;;;;34.40;22.51;100566.39;1562652;89;27375;-52
2021/06/07 11:55:42;;;;;;;7.17;3.72;;;;;;;34.40;21.90;100552.99;1610576;87;25906;-54
2021/06/07 11:58:20;;;;;;;5.30;3.85;;;;;;;34.26;22.36;100547.39;1610768;87;25789;-53
2021/06/07 12:00:55;;;;;;;5.62;3.60;;;;;;;34.48;22.57;100547.22;1611410;87;26380;-53
2021/06/07 12:03:25;;;;;;;6.50;3.90;;;;;;;34.56;22.20;100542.82;1580721;88;25875;-53
2021/06/07 12:05:53;;;;;;;4.20;3.65;;;;;;;34.21;21.56;100533.98;1587400;87;27458;-52
2021/06/07 12:08:23;;;;;;;3.83;3.40;;;;;;;33.75;21.74;100536.08;1613241;87;25717;-52
2021/06/07 12:10:56;;;;;;;4.60;3.67;;;;;;;33.45;21.83;100537.05;1616453;87;25891;-53
2021/06/07 12:13:36;;;;;;;3.47;3.15;;;;;;;33.26;22.26;100538.23;1609329;87;26192;-52
2021/06/07 12:16:11;;;;;;;4.37;3.83;;;;;;;33.00;22.44;100531.98;1609119;86;25989;-52
2021/06/07 12:18:45;;;;;;;7.37;3.67;;;;;;;32.69;22.64;100535.55;1573093;88;27449;-50
2021/06/07 12:21:19;;;;;;;8.28;3.65;;;;;;;32.41;23.00;100533.16;1586208;88;26060;-52
2021/06/07 12:23:55;;;;;;;4.42;4.03;;;;;;;32.28;23.59;100533.97;1595740;87;25692;-50
2021/06/07 12:29:32;;;;;;;;;;;;;;;32.81;24.08;100530.51;1600771;87;25950;-53
2021/06/07 12:32:21;;;;;;;4.53;3.20;;;;;;;33.22;23.10;100520.75;1593907;88;27450;-51
2021/06/07 12:35:16;;;;;;;3.10;2.90;;;;;;;33.46;22.69;100521.02;1608848;87;25898;-48
2021/06/07 12:37:53;;;;;;;5.30;3.10;;;;;;;33.56;22.77;100524.61;1617912;86;25989;-52
2021/06/07 12:40:40;;;;;;;4.30;3.85;;;;;;;33.56;22.77;100524.61;1575630;89;25787;-52
2021/06/07 12:43:12;;;;;;;7.42;3.70;;;;;;;33.27;22.29;100520.95;1586693;88;25880;-52
2021/06/07 12:46:01;;;;;;;6.15;4.97;;;;;;;32.94;22.44;100517.80;1617205;86;27457;-51
2021/06/07 12:48:41;;;;;;;5.80;3.80;;;;;;;32.61;22.78;100520.23;1610550;87;25722;-51
2021/06/07 12:51:11;;;;;;;4.60;3.30;;;;;;;32.47;23.24;100510.32;1616123;87;26462;-50
2021/06/07 12:53:52;;;;;;;4.60;3.50;;;;;;;32.04;23.00;100509.80;1592414;87;26535;-52
2021/06/07 12:56:30;;;;;;;6.05;3.25;;;;;;;32.04;23.00;100509.80;1609875;87;25927;-57
2021/06/07 12:58:59;;;;;;;5.22;3.20;;;;;;;31.90;23.69;100502.69;1609849;87;27344;-58
2021/06/07 13:01:41;;;;;;;3.90;3.35;;;;;;;31.99;23.91;100505.58;1606130;87;26169;-58
2021/06/07 13:04:08;;;;;;;6.80;3.45;;;;;;;31.97;24.70;100506.62;1614502;87;26044;-58
2021/06/07 13:06:49;;;;;;;3.62;3.15;;;;;;;32.03;24.13;100502.66;1602491;87;26640;-58
2021/06/07 13:09:15;;;;;;;3.80;3.50;;;;;;;32.01;25.17;100502.30;1617198;86;26829;-57
2021/06/07 13:11:44;;;;;;;3.67;3.37;;;;;;;32.08;25.07;100499.31;1610429;87;27321;-57
2021/06/07 13:14:25;;;;;;;5.15;3.40;;;;;;;32.16;25.59;100495.63;1602288;87;25779;-57
2021/06/07 13:16:56;;;;;;;4.90;3.42;;;;;;;32.29;25.44;100495.59;1611248;87;25873;-57
2021/06/07 13:19:28;;;;;;;3.83;3.17;;;;;;;32.14;25.07;100485.52;1613869;86;26122;-55
2021/06/07 13:22:03;;;;;;;5.33;3.40;;;;;;;31.64;24.69;100492.19;1611357;86;25855;-56
2021/06/07 13:24:34;;;;;;;5.20;3.60;;;;;;;31.16;25.17;100494.88;1568627;88;27327;-55
2021/06/07 13:27:05;;;;;;;5.53;3.60;;;;;;;30.64;25.54;100493.98;1641323;85;25815;-54
2021/06/07 13:29:41;;;;;;;4.25;3.17;;;;;;;30.25;25.97;100496.47;1634443;85;26609;-55
2021/06/07 13:32:25;;;;;;;5.33;3.50;;;;;;;29.87;26.49;100495.05;1647427;86;25684;-56
2021/06/07 13:35:00;;;;;;;4.85;3.60;;;;;;;29.63;27.40;100493.05;1614771;86;26448;-56
2021/06/07 13:37:46;;;;;;;7.05;3.75;;;;;;;29.47;27.10;100486.06;1609830;87;27370;-56
2021/06/07 13:40:29;;;;;;;8.68;3.98;;;;;;;29.41;27.62;100483.80;1629264;86;25970;-55
2021/06/07 13:43:09;;;;;;;6.28;3.40;;;;;;;29.46;28.87;100482.51;1627612;86;25706;-56
2021/06/07 13:45:42;;;;;;;5.12;3.72;;;;;;;29.59;28.56;100475.02;1620096;87;25911;-56
2021/06/07 13:48:12;;;;;;;4.10;3.30;;;;;;;29.80;28.42;100472.95;1622610;86;25699;-56
2021/06/07 13:50:54;;;;;;;5.30;3.60;;;;;;;30.03;28.13;100483.08;1616637;87;27475;-55
2021/06/07 13:53:33;;;;;;;10.03;3.83;;;;;;;30.18;28.36;100477.29;1622807;86;26211;-56
2021/06/07 13:56:04;;;;;;;6.33;3.90;;;;;;;30.21;27.33;100472.08;1624412;87;25850;-56
2021/06/07 13:58:44;;;;;;;4.25;3.87;;;;;;;29.99;27.00;100466.45;1619800;85;25757;-55
2021/06/07 14:01:14;;;;;;;8.30;4.00;;;;;;;29.70;27.08;100465.61;1612767;87;25948;-55
2021/06/07 14:03:42;;;;;;;7.90;4.30;;;;;;;29.38;27.39;100465.78;1611558;87;27793;-55
2021/06/07 14:06:11;;;;;;;5.45;3.50;;;;;;;29.01;27.45;100456.66;1615073;87;25790;-56
2021/06/07 14:08:52;;;;;;;5.70;3.58;;;;;;;28.68;27.98;100461.53;1618411;87;25866;-56
2021/06/07 14:11:23;;;;;;;3.72;3.42;;;;;;;28.41;28.17;100453.31;1604271;87;27725;-56
2021/06/07 14:13:47;;;;;;;;;;;;;;;28.21;28.42;100448.34;1609841;87;25867;-55
2021/06/07 14:16:14;;;;;;;4.22;3.30;;;;;;;28.05;28.38;100452.61;1616446;87;27491;-57
2021/06/07 14:18:43;;;;;;;4.15;3.70;;;;;;;27.87;28.90;100454.31;1618465;87;25696;-55
2021/06/07 14:21:12;;;;;;;4.55;3.65;;;;;;;27.74;29.20;100451.34;1602372;87;25936;-54
2021/06/07 14:26:24;;;;;;;5.53;3.75;;;;;;;27.87;29.60;100443.20;1597902;87;25658;-56
2021/06/07 14:28:53;;;;;;;7.17;3.90;;;;;;;27.76;29.28;100438.42;1609346;88;27336;-56
2021/06/07 14:31:22;;;;;;;4.75;3.42;;;;;;;27.64;29.09;100445.98;1609930;87;25802;-56
2021/06/07 14:33:49;;;;;;;3.95;3.58;;;;;;;27.52;29.29;100437.64;1613221;87;25876;-56
2021/06/07 14:36:18;;;;;;;4.95;3.75;;;;;;;27.43;29.15;100442.35;1607562;87;26214;-55
2021/06/07 14:38:47;;;;;;;6.05;3.45;;;;;;;27.46;29.72;100435.16;1620351;87;26529;-55
2021/06/07 14:41:15;;;;;;;3.77;3.25;;;;;;;27.62;29.50;100429.73;1610413;88;27991;-55
2021/06/07 14:43:49;;;;;;;5.93;3.63;;;;;;;27.68;29.27;100428.02;1613533;87;25855;-55
2021/06/07 14:46:16;;;;;;;5.15;3.40;;;;;;;27.68;29.10;100433.58;1606926;87;26613;-55
2021/06/07 14:48:44;;;;;;;3.62;3.33;;;;;;;27.76;29.03;100421.13;1609369;86;25633;-56
2021/06/07 14:51:12;;;;;;;5.37;3.50;;;;;;;27.85;28.94;100424.75;1613382;87;25873;-56
2021/06/07 14:53:39;;;;;;;4.97;3.95;;;;;;;27.88;28.84;100423.91;1599671;87;27455;-56
2021/06/07 14:56:09;;;;;;;7.47;3.80;;;;;;;27.88;28.69;100425.91;1607050;87;25684;-56
2021/06/07 14:58:36;;;;;;;4.80;3.67;;;;;;;27.90;28.66;100419.31;1621847;87;25817;-55
2021/06/07 15:01:06;;;;;;;5.75;3.20;;;;;;;27.90;28.79;100418.70;1600367;87;25860;-55
2021/06/07 15:03:33;;;;;;;6.95;3.40;;;;;;;27.88;28.67;100414.17;1613044;87;25794;-54
2021/06/07 15:05:59;;;;;;;4.10;3.47;;;;;;;27.86;28.65;100415.21;1586282;88;27395;-55
2021/06/07 15:08:27;;;;;;;6.87;3.55;;;;;;;27.83;28.64;100413.28;1564239;90;26041;-55
2021/06/07 15:10:53;;;;;;;5.65;3.50;;;;;;;27.78;28.64;100407.44;1562292;90;26493;-54
2021/06/07 15:13:21;;;;;;;4.80;3.33;;;;;;;27.83;28.67;100412.50;1552386;90;25799;-55
2021/06/07 15:15:49;;;;;;;5.37;3.90;;;;;;;27.83;28.66;100408.33;1557736;90;25763;-55
2021/06/07 15:18:16;;;;;;;6.08;3.55;;;;;;;27.83;28.69;100404.16;1557184;90;28021;-55
2021/06/07 15:20:43;;;;;;;4.90;3.47;;;;;;;27.81;28.64;100408.75;1575674;89;26066;-56
2021/06/07 15:23:12;;;;;;;5.33;3.80;;;;;;;27.76;28.59;100405.08;1557509;90;25926;-56
2021/06/07 15:25:39;;;;;;;;;;;;;;;27.67;28.46;100398.69;1608002;87;25923;-56
2021/06/07 15:28:08;;;;;;;4.70;4.08;;;;;;;27.64;28.35;100394.59;1603391;87;25824;-55
2021/06/07 15:30:34;;;;;;;3.62;3.15;;;;;;;27.60;28.41;100389.68;1601711;87;27406;-55
2021/06/07 15:33:01;;;;;;;4.78;3.52;;;;;;;27.55;28.47;100395.14;1604032;87;26610;-55
2021/06/07 15:35:42;;;;;;;8.20;4.67;;;;;;;27.57;28.74;100394.10;1589156;88;25885;-56
2021/06/07 15:38:36;;;;;;;5.75;4.85;;;;;;;27.60;28.87;100394.66;1591759;88;25921;-55
2021/06/07 15:41:13;;;;;;;5.12;3.52;;;;;;;27.62;28.71;100389.45;1572311;89;25695;-55
2021/06/07 15:43:40;;;;;;;6.60;4.53;;;;;;;27.62;28.84;100385.87;1570139;89;29577;-54
2021/06/07 15:46:10;;;;;;;5.35;3.80;;;;;;;27.57;28.73;100396.87;1595499;87;25700;-55
2021/06/07 15:48:40;;;;;;;3.67;3.37;;;;;;;27.53;28.71;100393.36;1601685;86;25861;-55
2021/06/07 15:51:10;;;;;;;4.37;3.47;;;;;;;27.47;28.64;100385.36;1577276;89;25915;-55
2021/06/07 15:53:37;;;;;;;5.42;3.90;;;;;;;27.46;28.74;100387.94;1621044;87;25943;-55
2021/06/07 15:56:07;;;;;;;5.62;3.70;;;;;;;27.45;28.78;100386.36;1588542;88;28326;-54
2021/06/07 15:58:35;;;;;;;4.35;3.62;;;;;;;27.44;28.94;100382.03;1590521;88;25723;-54
2021/06/07 16:01:05;;;;;;;6.00;4.70;;;;;;;27.43;29.13;100383.22;1594720;87;25900;-55
2021/06/07 16:03:34;;;;;;;7.92;4.20;;;;;;;27.44;29.19;100377.25;1589466;88;25893;-56
2021/06/07 16:06:03;;;;;;;6.12;3.70;;;;;;;27.42;29.26;100378.28;1570959;88;25826;-55
2021/06/07 16:08:31;;;;;;;8.03;4.50;;;;;;;27.44;29.28;100381.41;1575787;89;27272;-54
2021/06/07 16:10:59;;;;;;;4.75;3.60;;;;;;;27.43;29.31;100383.22;1579668;89;25884;-54
2021/06/07 16:13:26;;;;;;;4.05;3.60;;;;;;;27.42;29.38;100383.84;1591207;89;25823;-55
2021/06/07 16:16:00;;;;;;;5.58;3.83;;;;;;;27.39;29.39;100385.45;1587131;88;25866;-55
2021/06/07 16:18:25;;;;;;;6.47;3.50;;;;;;;27.32;29.19;100379.25;1626679;86;25874;-56
2021/06/07 16:23:21;;;;;;;4.12;3.83;;;;;;;27.28;29.04;100379.89;1599052;87;26513;-54
2021/06/07 16:25:52;;;;;;;5.22;3.80;;;;;;;27.21;29.24;100373.84;1577016;88;25976;-54
2021/06/07 16:28:21;;;;;;;3.55;3.25;;;;;;;27.17;29.30;100373.88;1562611;89;25644;-55
2021/06/07 16:30:50;;;;;;;3.55;3.25;;;;;;;27.13;29.31;100381.49;1596829;88;25927;-55
2021/06/07 16:33:17;;;;;;;4.37;3.47;;;;;;;27.10;29.34;100388.49;1582583;89;27314;-55
2021/06/07 16:35:44;;;;;;;5.95;3.50;;;;;;;27.06;29.45;100378.84;1600043;87;25675;-55
2021/06/07 16:38:11;;;;;;;3.92;3.55;;;;;;;27.05;29.52;100386.19;1591206;88;25846;-55
2021/06/07 16:40:39;;;;;;;4.55;3.30;;;;;;;27.03;29.54;100388.00;1612658;87;25859;-55
2021/06/07 16:43:11;;;;;;;5.50;3.75;;;;;;;27.01;29.70;100390.41;1628371;85;25769;-55
2021/06/07 16:45:39;;;;;;;5.95;3.35;;;;;;;26.97;29.78;100386.30;1646377;85;27353;-55
2021/06/07 16:48:07;;;;;;;5.78;3.95;;;;;;;26.91;29.93;100382.42;1640679;85;25428;-56
2021/06/07 16:50:37;;;;;;;3.67;3.35;;;;;;;26.83;30.03;100380.95;1568756;89;26254;-53
2021/06/07 16:53:05;;;;;;;5.08;3.25;;;;;;;26.75;30.36;100383.64;1592178;87;25896;-54
2021/06/07 16:55:32;;;;;;;6.92;3.22;;;;;;;26.64;30.51;100387.34;1601853;87;25767;-54
2021/06/07 16:57:59;;;;;;;12.95;3.87;;;;;;;26.59;30.66;100395.33;1606376;87;28039;-54
2021/06/07 17:00:26;;;;;;;5.83;3.72;;;;;;;26.54;30.88;100393.02;1599887;88;25878;-55
2021/06/07 17:02:53;;;;;;;4.47;3.77;;;;;;;26.45;30.97;100389.37;1577779;89;25966;-55
2021/06/07 17:05:20;;;;;;;6.55;3.90;;;;;;;26.38;31.14;100391.63;1571953;90;25753;-56
2021/06/07 17:07:47;;;;;;;7.03;5.78;;;;;;;26.31;31.22;100386.79;1609277;87;25843;-56
2021/06/07 17:10:15;;;;;;;4.58;3.85;;;;;;;26.22;31.47;100392.23;1601319;87;27394;-56
2021/06/07 17:12:47;;;;;;;5.75;3.35;;;;;;;26.13;31.50;100386.37;1612833;87;26470;-56
2021/06/07 17:15:24;;;;;;;4.85;3.37;;;;;;;26.06;31.49;100394.17;1600812;87;25873;-56
2021/06/07 17:18:01;;;;;;;6.62;3.40;;;;;;;25.99;31.64;100393.48;1596983;87;34929;-56
2021/06/07 17:20:29;;;;;;;6.05;4.17;;;;;;;25.92;31.86;100397.08;1621253;87;25998;-56
2021/06/07 17:22:56;;;;;;;5.47;4.17;;;;;;;25.82;31.79;100390.44;1611485;87;27557;-56
2021/06/07 17:25:23;;;;;;;7.00;3.50;;;;;;;25.74;31.87;100388.94;1608056;87;25819;-56